createdAt,value
2018-09-12T00:00:47.856Z,4.00
2018-09-12T00:01:47.861Z,3.80
2018-09-12T00:02:47.848Z,5.40
2018-09-12T00:03:47.816Z,4.00
2018-09-12T00:04:47.802Z,5.10
2018-09-12T00:05:47.790Z,4.40
2018-09-12T00:06:47.776Z,3.40
2018-09-12T00:07:47.775Z,5.30
2018-09-12T00:08:47.753Z,4.20
2018-09-12T00:09:47.737Z,5.80
2018-09-12T00:10:47.721Z,3.90
2018-09-12T00:11:47.705Z,4.00
2018-09-12T00:12:47.711Z,4.30
2018-09-12T00:13:47.698Z,4.90
2018-09-12T00:14:47.667Z,4.80
2018-09-12T00:15:47.654Z,3.60
2018-09-12T00:16:47.642Z,4.90
2018-09-12T00:17:47.628Z,3.40
2018-09-12T00:18:47.613Z,4.30
2018-09-12T00:19:47.613Z,4.00
2018-09-12T00:20:47.590Z,5.10
2018-09-12T00:21:47.569Z,3.90
2018-09-12T00:22:47.562Z,4.10
2018-09-12T00:23:47.562Z,4.10
2018-09-12T00:24:47.530Z,5.00
2018-09-12T00:25:47.517Z,5.00
2018-09-12T00:26:47.507Z,5.10
2018-09-12T00:27:47.489Z,4.20
2018-09-12T00:28:47.476Z,4.40
2018-09-12T00:29:47.478Z,5.30
2018-09-12T00:30:47.444Z,4.50
2018-09-12T00:31:47.432Z,4.80
2018-09-12T00:32:47.439Z,5.60
2018-09-12T00:33:47.410Z,4.90
2018-09-12T00:34:47.392Z,3.60
2018-09-12T00:35:47.381Z,4.00
2018-09-12T00:36:47.382Z,5.30
2018-09-12T00:37:47.356Z,5.40
2018-09-12T00:38:47.340Z,5.90
2018-09-12T00:39:47.338Z,4.80
2018-09-12T00:40:47.326Z,5.80
2018-09-12T00:41:47.301Z,6.00
2018-09-12T00:42:47.287Z,4.00
2018-09-12T00:43:47.272Z,4.40
2018-09-12T00:44:47.256Z,5.60
2018-09-12T00:45:47.261Z,5.30
2018-09-12T00:46:47.237Z,7.10
2018-09-12T00:47:47.217Z,5.80
2018-09-12T00:48:47.199Z,7.10
2018-09-12T00:49:47.186Z,5.40
2018-09-12T00:50:47.172Z,6.80
2018-09-12T00:51:47.158Z,6.70
2018-09-12T00:52:47.158Z,6.00
2018-09-12T00:53:47.127Z,7.30
2018-09-12T00:54:47.116Z,5.90
2018-09-12T00:55:47.101Z,7.30
2018-09-12T00:56:47.105Z,7.60
2018-09-12T00:57:47.076Z,8.30
2018-09-12T00:58:47.061Z,6.40
2018-09-12T00:59:47.049Z,6.90
2018-09-12T01:00:47.033Z,6.40
2018-09-12T01:01:47.032Z,8.70
2018-09-12T01:02:47.008Z,7.10
2018-09-12T01:03:46.989Z,4.00
2018-09-12T01:04:46.982Z,6.00
2018-09-12T01:05:46.959Z,9.00
2018-09-12T01:06:46.957Z,8.50
2018-09-12T01:07:46.950Z,8.00
2018-09-12T01:08:46.922Z,8.50
2018-09-12T01:09:46.908Z,7.80
2018-09-12T01:10:46.891Z,8.30
2018-09-12T01:11:46.872Z,6.70
2018-09-12T01:12:46.881Z,10.10
2018-09-12T01:13:46.851Z,7.60
2018-09-12T01:14:46.833Z,7.60
2018-09-12T01:15:46.818Z,8.40
2018-09-12T01:16:46.806Z,8.10
2018-09-12T01:17:46.814Z,6.60
2018-09-12T01:18:46.770Z,6.70
2018-09-12T01:19:46.763Z,8.30
2018-09-12T01:20:46.757Z,5.90
2018-09-12T01:21:46.746Z,9.40
2018-09-12T01:22:46.716Z,7.70
2018-09-12T01:23:46.704Z,5.80
2018-09-12T01:24:46.703Z,8.60
2018-09-12T01:25:46.675Z,7.70
2018-09-12T01:26:46.658Z,10.40
2018-09-12T01:27:46.644Z,9.30
2018-09-12T01:28:46.633Z,8.80
2018-09-12T01:29:46.620Z,8.90
2018-09-12T01:30:46.614Z,10.70
2018-09-12T01:31:46.600Z,7.00
2018-09-12T01:32:46.575Z,7.90
2018-09-12T01:33:46.576Z,6.80
2018-09-12T01:34:46.543Z,8.30
2018-09-12T01:35:46.541Z,12.50
2018-09-12T01:36:46.516Z,7.20
2018-09-12T01:37:46.502Z,6.30
2018-09-12T01:38:46.502Z,7.00
2018-09-12T01:39:46.472Z,5.80
2018-09-12T01:40:46.461Z,8.80
2018-09-12T01:41:46.446Z,8.30
2018-09-12T01:42:46.431Z,4.80
2018-09-12T01:43:46.444Z,6.20
2018-09-12T01:44:46.400Z,6.80
2018-09-12T01:45:46.388Z,7.10
2018-09-12T01:46:46.373Z,6.30
2018-09-12T01:47:46.358Z,7.50
2018-09-12T01:48:46.340Z,6.10
2018-09-12T01:49:46.344Z,7.40
2018-09-12T01:50:46.330Z,6.80
2018-09-12T01:51:46.301Z,6.10
2018-09-12T01:52:46.281Z,7.30
2018-09-12T01:53:46.271Z,7.70
2018-09-12T01:54:46.255Z,8.50
2018-09-12T01:55:46.255Z,5.10
2018-09-12T01:56:46.231Z,8.70
2018-09-12T01:57:46.220Z,8.10
2018-09-12T01:58:46.195Z,7.20
2018-09-12T01:59:46.210Z,7.20
2018-09-12T02:00:46.169Z,7.70
2018-09-12T02:01:46.155Z,6.40
2018-09-12T02:02:46.156Z,7.30
2018-09-12T02:03:46.127Z,6.20
2018-09-12T02:04:46.112Z,8.70
2018-09-12T02:05:46.097Z,6.00
2018-09-12T02:06:46.095Z,7.20
2018-09-12T02:07:46.064Z,6.70
2018-09-12T02:08:46.056Z,6.40
2018-09-12T02:09:46.038Z,6.80
2018-09-12T02:10:46.023Z,7.40
2018-09-12T02:11:46.026Z,8.00
2018-09-12T02:12:46.007Z,8.50
2018-09-12T02:13:45.981Z,7.40
2018-09-12T02:14:45.967Z,7.80
2018-09-12T02:15:45.948Z,7.30
2018-09-12T02:16:45.937Z,6.60
2018-09-12T02:17:45.937Z,7.10
2018-09-12T02:18:45.909Z,7.20
2018-09-12T02:19:45.891Z,6.10
2018-09-12T02:20:45.876Z,5.20
2018-09-12T02:21:45.867Z,6.80
2018-09-12T02:22:45.867Z,7.20
2018-09-12T02:23:45.846Z,7.50
2018-09-12T02:24:45.823Z,5.10
2018-09-12T02:25:45.807Z,5.80
2018-09-12T02:26:45.793Z,9.00
2018-09-12T02:27:45.791Z,6.40
2018-09-12T02:28:45.780Z,6.20
2018-09-12T02:29:45.745Z,8.40
2018-09-12T02:30:45.730Z,6.80
2018-09-12T02:31:45.719Z,7.90
2018-09-12T02:32:45.705Z,7.20
2018-09-12T02:33:45.707Z,7.30
2018-09-12T02:34:45.675Z,7.40
2018-09-12T02:35:45.663Z,6.20
2018-09-12T02:36:45.643Z,7.50
2018-09-12T02:37:45.637Z,8.40
2018-09-12T02:38:45.612Z,6.70
2018-09-12T02:39:45.615Z,6.10
2018-09-12T02:40:45.586Z,8.50
2018-09-12T02:41:45.577Z,9.20
2018-09-12T02:42:45.557Z,7.80
2018-09-12T02:43:45.544Z,7.30
2018-09-12T02:44:45.550Z,6.10
2018-09-12T02:45:45.513Z,9.30
2018-09-12T02:46:45.497Z,7.50
2018-09-12T02:47:45.488Z,8.00
2018-09-12T02:48:45.465Z,7.30
2018-09-12T02:49:45.457Z,7.90
2018-09-12T02:50:45.455Z,7.60
2018-09-12T02:51:45.426Z,6.30
2018-09-12T02:52:45.411Z,5.00
2018-09-12T02:53:45.411Z,7.20
2018-09-12T02:54:45.384Z,8.00
2018-09-12T02:55:45.380Z,7.60
2018-09-12T02:56:45.354Z,8.20
2018-09-12T02:57:45.340Z,6.80
2018-09-12T02:58:45.335Z,7.50
2018-09-12T02:59:45.312Z,7.60
2018-09-12T03:00:45.312Z,8.30
2018-09-12T03:01:45.279Z,7.30
2018-09-12T03:02:45.262Z,7.00
2018-09-12T03:03:45.245Z,6.60
2018-09-12T03:04:45.234Z,7.90
2018-09-12T03:05:45.234Z,7.40
2018-09-12T03:06:45.225Z,8.80
2018-09-12T03:07:45.204Z,8.60
2018-09-12T03:08:45.174Z,7.20
2018-09-12T03:09:45.163Z,8.50
2018-09-12T03:10:45.159Z,7.50
2018-09-12T03:11:45.147Z,7.30
2018-09-12T03:12:45.115Z,8.80
2018-09-12T03:13:45.103Z,9.00
2018-09-12T03:14:45.089Z,8.60
2018-09-12T03:15:45.069Z,7.10
2018-09-12T03:16:45.084Z,8.30
2018-09-12T03:17:45.044Z,7.50
2018-09-12T03:18:45.028Z,7.60
2018-09-12T03:19:45.012Z,8.40
2018-09-12T03:20:45.200Z,7.00
2018-09-12T03:21:44.983Z,7.50
2018-09-12T03:22:44.983Z,9.30
2018-09-12T03:23:44.948Z,7.90
2018-09-12T03:24:44.934Z,7.80
2018-09-12T03:25:44.924Z,7.60
2018-09-12T03:26:44.910Z,8.30
2018-09-12T03:27:44.907Z,6.30
2018-09-12T03:28:44.881Z,7.80
2018-09-12T03:29:44.865Z,7.30
2018-09-12T03:30:44.847Z,7.30
2018-09-12T03:31:44.838Z,7.60
2018-09-12T03:32:44.834Z,8.30
2018-09-12T03:33:44.804Z,6.10
2018-09-12T03:34:44.805Z,6.80
2018-09-12T03:35:44.776Z,8.20
2018-09-12T03:36:44.761Z,8.60
2018-09-12T03:37:44.754Z,7.10
2018-09-12T03:38:44.730Z,5.30
2018-09-12T03:39:44.716Z,8.80
2018-09-12T03:40:44.699Z,6.90
2018-09-12T03:41:44.745Z,7.80
2018-09-12T03:42:44.686Z,6.80
2018-09-12T03:43:44.653Z,8.10
2018-09-12T03:44:44.636Z,8.10
2018-09-12T03:45:44.625Z,7.60
2018-09-12T03:46:44.625Z,6.20
2018-09-12T03:47:44.611Z,5.80
2018-09-12T03:48:44.578Z,8.70
2018-09-12T03:49:44.562Z,7.10
2018-09-12T03:50:44.547Z,7.10
2018-09-12T03:51:44.534Z,9.70
2018-09-12T03:52:44.521Z,8.40
2018-09-12T03:53:44.525Z,6.50
2018-09-12T03:54:44.483Z,5.80
2018-09-12T03:55:44.477Z,7.40
2018-09-12T03:56:45.250Z,5.50
2018-09-12T03:57:44.447Z,6.90
2018-09-12T03:58:44.441Z,7.90
2018-09-12T03:59:44.413Z,7.00
2018-09-12T04:00:44.393Z,8.80
2018-09-12T04:01:44.401Z,7.40
2018-09-12T04:02:44.406Z,6.00
2018-09-12T04:03:44.368Z,8.60
2018-09-12T04:04:44.339Z,7.80
2018-09-12T04:05:44.320Z,7.10
2018-09-12T04:06:44.307Z,7.40
2018-09-12T04:07:44.292Z,7.30
2018-09-12T04:08:44.295Z,6.20
2018-09-12T04:09:44.263Z,5.50
2018-09-12T04:10:44.246Z,7.10
2018-09-12T04:11:44.233Z,7.80
2018-09-12T04:12:44.214Z,7.70
2018-09-12T04:13:44.205Z,6.50
2018-09-12T04:14:44.201Z,7.50
2018-09-12T04:15:44.169Z,6.80
2018-09-12T04:16:44.215Z,5.40
2018-09-12T04:17:44.148Z,6.60
2018-09-12T04:18:44.123Z,6.30
2018-09-12T04:19:44.124Z,8.00
2018-09-12T04:20:44.104Z,6.30
2018-09-12T04:21:44.081Z,7.70
2018-09-12T04:22:44.061Z,11.00
2018-09-12T04:23:44.047Z,9.40
2018-09-12T04:24:44.047Z,8.20
2018-09-12T04:25:44.032Z,7.40
2018-09-12T04:26:44.022Z,5.10
2018-09-12T04:27:43.984Z,8.60
2018-09-12T04:28:44.001Z,7.30
2018-09-12T04:29:43.956Z,6.40
2018-09-12T04:30:43.963Z,6.70
2018-09-12T04:31:43.922Z,7.60
2018-09-12T04:32:43.922Z,7.90
2018-09-12T04:33:43.894Z,8.20
2018-09-12T04:34:43.878Z,8.50
2018-09-12T04:35:43.878Z,8.30
2018-09-12T04:36:43.850Z,8.00
2018-09-12T04:37:43.830Z,6.00
2018-09-12T04:38:43.814Z,6.20
2018-09-12T04:39:43.801Z,6.30
2018-09-12T04:40:43.805Z,7.10
2018-09-12T04:41:43.771Z,6.00
2018-09-12T04:42:43.855Z,8.60
2018-09-12T04:43:43.743Z,7.40
2018-09-12T04:44:43.742Z,7.10
2018-09-12T04:45:43.714Z,7.90
2018-09-12T04:46:43.709Z,7.50
2018-09-12T04:47:43.687Z,8.90
2018-09-12T04:48:43.676Z,7.30
2018-09-12T04:49:47.239Z,6.80
2018-09-12T04:50:43.655Z,7.70
2018-09-12T04:51:43.632Z,7.00
2018-09-12T04:52:49.271Z,9.20
2018-09-12T04:53:43.589Z,7.60
2018-09-12T04:54:43.576Z,7.60
2018-09-12T04:55:44.261Z,8.20
2018-09-12T04:56:44.068Z,8.50
2018-09-12T04:57:43.526Z,6.30
2018-09-12T04:58:43.509Z,9.30
2018-09-12T04:59:43.600Z,6.20
2018-09-12T05:00:43.483Z,8.20
2018-09-12T05:01:43.467Z,7.10
2018-09-12T05:02:43.465Z,8.50
2018-09-12T05:03:43.433Z,9.00
2018-09-12T05:04:43.420Z,7.00
2018-09-12T05:05:43.417Z,6.70
2018-09-12T05:06:43.384Z,7.90
2018-09-12T05:07:43.387Z,7.80
2018-09-12T05:08:43.357Z,7.50
2018-09-12T05:09:43.341Z,8.70
2018-09-12T05:10:43.327Z,7.00
2018-09-12T05:11:43.315Z,8.30
2018-09-12T05:12:43.313Z,7.00
2018-09-12T05:13:43.281Z,7.10
2018-09-12T05:14:43.265Z,7.80
2018-09-12T05:15:43.250Z,10.10
2018-09-12T05:16:43.254Z,12.50
2018-09-12T05:17:43.222Z,8.40
2018-09-12T05:18:43.237Z,7.40
2018-09-12T05:19:43.201Z,8.10
2018-09-12T05:20:43.174Z,7.60
2018-09-12T05:21:43.158Z,7.60
2018-09-12T05:22:43.141Z,7.70
2018-09-12T05:23:43.137Z,11.10
2018-09-12T05:24:43.110Z,8.00
2018-09-12T05:25:43.091Z,9.90
2018-09-12T05:26:43.079Z,6.70
2018-09-12T05:27:43.068Z,8.20
2018-09-12T05:28:43.068Z,6.60
2018-09-12T05:29:43.032Z,8.40
2018-09-12T05:30:43.020Z,7.90
2018-09-12T05:31:43.003Z,9.00
2018-09-12T05:32:42.991Z,8.80
2018-09-12T05:33:42.976Z,6.80
2018-09-12T05:34:42.974Z,8.10
2018-09-12T05:35:42.941Z,8.90
2018-09-12T05:36:42.927Z,7.20
2018-09-12T05:37:42.915Z,9.30
2018-09-12T05:38:42.898Z,10.50
2018-09-12T05:39:42.895Z,8.30
2018-09-12T05:40:42.868Z,8.70
2018-09-12T05:41:42.848Z,8.90
2018-09-12T05:42:42.835Z,8.90
2018-09-12T05:43:42.820Z,8.60
2018-09-12T05:44:42.818Z,11.40
2018-09-12T05:45:42.795Z,10.20
2018-09-12T05:46:42.776Z,14.30
2018-09-12T05:47:42.763Z,12.00
2018-09-12T05:48:42.747Z,12.30
2018-09-12T05:49:42.746Z,11.60
2018-09-12T05:50:42.714Z,13.40
2018-09-12T05:51:42.703Z,10.20
2018-09-12T05:52:42.689Z,12.40
2018-09-12T05:53:42.672Z,14.40
2018-09-12T05:54:42.655Z,10.00
2018-09-12T05:55:42.654Z,11.40
2018-09-12T05:56:42.657Z,10.90
2018-09-12T05:57:42.611Z,11.10
2018-09-12T05:58:42.598Z,11.80
2018-09-12T05:59:42.580Z,13.70
2018-09-12T06:00:42.566Z,12.50
2018-09-12T06:01:42.551Z,10.10
2018-09-12T06:02:42.550Z,9.60
2018-09-12T06:03:42.521Z,10.00
2018-09-12T06:04:42.505Z,13.40
2018-09-12T06:05:42.505Z,10.90
2018-09-12T06:06:42.585Z,13.20
2018-09-12T06:07:42.458Z,11.50
2018-09-12T06:08:42.447Z,17.00
2018-09-12T06:09:42.435Z,14.00
2018-09-12T06:10:42.418Z,15.20
2018-09-12T06:11:42.399Z,13.70
2018-09-12T06:12:42.405Z,16.50
2018-09-12T06:13:42.385Z,16.50
2018-09-12T06:14:42.357Z,15.70
2018-09-12T06:15:42.342Z,17.40
2018-09-12T06:16:42.330Z,20.90
2018-09-12T06:17:42.381Z,20.00
2018-09-12T06:18:42.309Z,19.60
2018-09-12T06:19:42.296Z,20.40
2018-09-12T06:20:42.264Z,21.20
2018-09-12T06:21:42.255Z,22.80
2018-09-12T06:22:42.243Z,20.70
2018-09-12T06:23:42.240Z,11.60
2018-09-12T06:24:42.223Z,15.70
2018-09-12T06:25:42.203Z,16.70
2018-09-12T06:26:42.178Z,13.50
2018-09-12T06:27:42.170Z,13.10
2018-09-12T06:28:42.151Z,15.50
2018-09-12T06:29:42.149Z,15.20
2018-09-12T06:30:42.128Z,18.40
2018-09-12T06:31:42.103Z,20.20
2018-09-12T06:32:42.089Z,16.60
2018-09-12T06:33:42.075Z,16.40
2018-09-12T06:34:42.077Z,13.50
2018-09-12T06:35:42.047Z,10.80
2018-09-12T06:36:42.035Z,13.20
2018-09-12T06:37:42.032Z,10.40
2018-09-12T06:38:42.076Z,11.30
2018-09-12T06:39:42.000Z,11.60
2018-09-12T06:40:41.972Z,11.10
2018-09-12T06:41:41.963Z,11.50
2018-09-12T06:42:41.961Z,12.00
2018-09-12T06:43:41.935Z,12.80
2018-09-12T06:44:41.982Z,17.10
2018-09-12T06:45:41.903Z,13.20
2018-09-12T06:46:41.885Z,16.70
2018-09-12T06:47:41.875Z,16.60
2018-09-12T06:48:41.875Z,16.00
2018-09-12T06:49:41.865Z,12.70
2018-09-12T06:50:41.835Z,14.20
2018-09-12T06:51:41.820Z,12.30
2018-09-12T06:52:41.804Z,12.70
2018-09-12T06:53:41.791Z,9.40
2018-09-12T06:54:41.789Z,12.70
2018-09-12T06:55:41.778Z,12.60
2018-09-12T06:56:41.749Z,9.40
2018-09-12T06:57:41.731Z,7.20
2018-09-12T06:58:41.718Z,9.00
2018-09-12T06:59:41.720Z,8.50
2018-09-12T07:00:41.770Z,7.60
2018-09-12T07:01:41.678Z,8.40
2018-09-12T07:02:41.663Z,9.30
2018-09-12T07:03:41.647Z,7.90
2018-09-12T07:05:02.650Z,9.20
2018-09-12T07:05:41.621Z,8.30
2018-09-12T07:06:41.607Z,9.30
2018-09-12T07:07:41.641Z,9.50
2018-09-12T07:08:41.628Z,6.80
2018-09-12T07:09:41.572Z,8.30
2018-09-12T07:10:41.568Z,8.50
2018-09-12T07:11:41.557Z,8.10
2018-09-12T07:12:41.529Z,9.40
2018-09-12T07:13:41.512Z,7.30
2018-09-12T07:14:41.500Z,8.30
2018-09-12T07:15:41.486Z,10.10
2018-09-12T07:16:41.488Z,8.10
2018-09-12T07:17:41.459Z,9.50
2018-09-12T07:18:41.441Z,8.10
2018-09-12T07:19:41.430Z,8.90
2018-09-12T07:20:41.419Z,8.90
2018-09-12T07:21:41.424Z,9.00
2018-09-12T07:22:41.391Z,7.90
2018-09-12T07:23:41.380Z,6.50
2018-09-12T07:24:41.389Z,8.00
2018-09-12T07:25:41.354Z,11.30
2018-09-12T07:26:41.347Z,9.20
2018-09-12T07:27:41.420Z,8.30
2018-09-12T07:28:41.314Z,7.40
2018-09-12T07:29:41.303Z,7.60
2018-09-12T07:30:41.335Z,7.60
2018-09-12T07:31:41.273Z,8.40
2018-09-12T07:32:41.272Z,11.10
2018-09-12T07:33:41.245Z,10.00
2018-09-12T07:34:41.228Z,8.10
2018-09-12T07:35:41.220Z,9.40
2018-09-12T07:36:41.205Z,8.90
2018-09-12T07:37:41.208Z,8.30
2018-09-12T07:38:41.197Z,9.70
2018-09-12T07:39:41.168Z,9.40
2018-09-12T07:40:41.154Z,10.60
2018-09-12T07:41:41.193Z,9.80
2018-09-12T07:42:41.140Z,8.20
2018-09-12T07:43:41.115Z,12.20
2018-09-12T07:44:41.173Z,8.40
2018-09-12T07:45:41.089Z,7.60
2018-09-12T07:46:41.075Z,8.80
2018-09-12T07:47:41.065Z,10.10
2018-09-12T07:48:41.070Z,9.00
2018-09-12T07:49:41.057Z,9.20
2018-09-12T07:50:41.026Z,9.00
2018-09-12T07:51:41.009Z,12.30
2018-09-12T07:52:41.000Z,8.30
2018-09-12T07:53:41.012Z,10.30
2018-09-12T07:54:40.998Z,10.20
2018-09-12T07:55:40.960Z,10.70
2018-09-12T07:56:40.968Z,9.60
2018-09-12T07:57:40.936Z,9.30
2018-09-12T07:58:40.923Z,11.30
2018-09-12T07:59:40.911Z,9.60
2018-09-12T08:00:40.965Z,8.90
2018-09-12T08:01:40.888Z,10.80
2018-09-12T08:02:40.872Z,11.20
2018-09-12T08:03:40.860Z,10.00
2018-09-12T08:04:40.844Z,10.30
2018-09-12T08:05:40.849Z,9.70
2018-09-12T08:06:40.817Z,10.30
2018-09-12T08:07:40.807Z,10.20
2018-09-12T08:08:40.793Z,10.90
2018-09-12T08:09:40.806Z,9.50
2018-09-12T08:10:40.786Z,10.60
2018-09-12T08:11:40.763Z,10.80
2018-09-12T08:12:40.745Z,10.00
2018-09-12T08:13:40.734Z,11.70
2018-09-12T08:14:40.719Z,11.10
2018-09-12T08:15:40.726Z,12.70
2018-09-12T08:16:40.697Z,10.50
2018-09-12T08:17:40.679Z,10.70
2018-09-12T08:18:40.665Z,9.10
2018-09-12T08:19:40.654Z,8.80
2018-09-12T08:20:40.654Z,8.80
2018-09-12T08:21:40.645Z,10.50
2018-09-12T08:22:40.613Z,11.20
2018-09-12T08:23:40.605Z,9.30
2018-09-12T08:24:40.589Z,8.80
2018-09-12T08:25:40.576Z,10.60
2018-09-12T08:26:40.625Z,10.40
2018-09-12T08:27:40.547Z,8.30
2018-09-12T08:28:40.553Z,9.40
2018-09-12T08:29:40.524Z,10.10
2018-09-12T08:30:40.511Z,10.00
2018-09-12T08:31:40.495Z,10.70
2018-09-12T08:32:40.502Z,11.00
2018-09-12T08:33:40.474Z,12.80
2018-09-12T08:34:40.460Z,11.70
2018-09-12T08:35:40.448Z,11.30
2018-09-12T08:36:40.452Z,12.60
2018-09-12T08:37:40.422Z,10.50
2018-09-12T08:38:40.408Z,12.30
2018-09-12T08:39:40.395Z,9.80
2018-09-12T08:40:40.384Z,11.40
2018-09-12T08:41:40.371Z,9.80
2018-09-12T08:42:40.451Z,8.90
2018-09-12T08:44:40.331Z,10.00
2018-09-12T08:45:40.321Z,10.90
2018-09-12T08:46:40.307Z,11.70
2018-09-12T08:47:40.326Z,8.30
2018-09-12T08:48:40.295Z,10.70
2018-09-12T08:49:40.269Z,10.30
2018-09-12T08:50:40.257Z,11.10
2018-09-12T08:51:40.243Z,10.30
2018-09-12T08:52:40.244Z,10.30
2018-09-12T08:53:40.216Z,10.60
2018-09-12T08:54:40.204Z,10.40
2018-09-12T08:55:40.192Z,10.90
2018-09-12T08:56:40.192Z,12.60
2018-09-12T08:57:40.181Z,10.80
2018-09-12T08:58:40.153Z,11.30
2018-09-12T08:59:40.141Z,9.90
2018-09-12T09:00:40.129Z,11.40
2018-09-12T09:01:40.156Z,12.60
2018-09-12T09:02:40.121Z,10.10
2018-09-12T09:03:40.107Z,12.40
2018-09-12T09:04:40.079Z,10.60
2018-09-12T09:05:40.070Z,11.00
2018-09-12T09:06:40.055Z,11.30
2018-09-12T09:07:40.063Z,10.10
2018-09-12T09:08:40.031Z,10.90
2018-09-12T09:09:40.021Z,8.70
2018-09-12T09:10:40.075Z,11.70
2018-09-12T09:11:39.995Z,9.90
2018-09-12T09:12:39.987Z,10.80
2018-09-12T09:13:39.997Z,10.70
2018-09-12T09:14:39.985Z,11.00
2018-09-12T09:15:39.950Z,10.50
2018-09-12T09:16:39.939Z,12.30
2018-09-12T09:17:39.932Z,10.10
2018-09-12T09:18:39.935Z,14.40
2018-09-12T09:19:39.906Z,12.00
2018-09-12T09:20:39.912Z,9.60
2018-09-12T09:21:39.886Z,9.70
2018-09-12T09:22:39.878Z,9.80
2018-09-12T09:23:39.872Z,9.20
2018-09-12T09:24:39.877Z,10.10
2018-09-12T09:25:39.849Z,11.50
2018-09-12T09:26:39.842Z,10.50
2018-09-12T09:27:39.829Z,12.30
2018-09-12T09:28:39.819Z,13.40
2018-09-12T09:29:39.832Z,11.30
2018-09-12T09:30:39.821Z,11.90
2018-09-12T09:31:39.795Z,10.70
2018-09-12T09:32:39.791Z,10.90
2018-09-12T09:33:39.782Z,11.40
2018-09-12T09:34:39.773Z,10.70
2018-09-12T09:35:39.905Z,12.30
2018-09-12T09:36:39.760Z,10.80
2018-09-12T09:37:39.750Z,11.20
2018-09-12T09:38:39.746Z,10.80
2018-09-12T09:39:39.751Z,9.60
2018-09-12T09:40:39.741Z,8.70
2018-09-12T09:41:39.727Z,9.40
2018-09-12T09:42:39.773Z,12.00
2018-09-12T09:43:39.711Z,9.10
2018-09-12T09:44:39.719Z,9.80
2018-09-12T09:46:00.732Z,9.30
2018-09-12T09:46:39.689Z,10.40
2018-09-12T09:47:39.685Z,9.60
2018-09-12T09:48:39.679Z,12.70
2018-09-12T09:49:39.674Z,12.30
2018-09-12T09:50:39.682Z,10.00
2018-09-12T09:51:39.676Z,10.20
2018-09-12T09:52:39.654Z,11.90
2018-09-12T09:53:39.650Z,11.30
2018-09-12T09:54:39.713Z,10.90
2018-09-12T09:55:39.651Z,10.00
2018-09-12T09:56:39.657Z,9.30
2018-09-12T09:57:39.628Z,9.10
2018-09-12T09:58:39.616Z,8.60
2018-09-12T09:59:39.616Z,9.20
2018-09-12T10:00:39.610Z,9.30
2018-09-12T10:01:39.603Z,9.20
2018-09-12T10:02:39.616Z,9.50
2018-09-12T10:03:39.595Z,10.90
2018-09-12T10:04:39.591Z,8.70
2018-09-12T10:05:39.587Z,8.40
2018-09-12T10:06:39.580Z,9.10
2018-09-12T10:07:39.588Z,9.00
2018-09-12T10:08:39.573Z,7.50
2018-09-12T10:09:39.564Z,7.00
2018-09-12T10:10:39.560Z,9.50
2018-09-12T10:11:39.554Z,7.80
2018-09-12T10:12:39.564Z,9.30
2018-09-12T10:13:39.544Z,8.20
2018-09-12T10:14:39.538Z,10.40
2018-09-12T10:15:39.534Z,7.50
2018-09-12T10:16:39.532Z,8.00
2018-09-12T10:17:39.541Z,10.00
2018-09-12T10:18:39.520Z,8.60
2018-09-12T10:19:39.516Z,9.60
2018-09-12T10:20:39.526Z,8.20
2018-09-12T10:21:39.512Z,7.60
2018-09-12T10:22:39.505Z,8.50
2018-09-12T10:23:39.507Z,9.00
2018-09-12T10:24:39.498Z,7.50
2018-09-12T10:25:39.508Z,6.30
2018-09-12T10:26:39.487Z,7.80
2018-09-12T10:27:39.482Z,6.60
2018-09-12T10:28:39.496Z,7.90
2018-09-12T10:29:39.477Z,13.60
2018-09-12T10:30:39.474Z,10.80
2018-09-12T10:32:00.484Z,23.50
2018-09-12T10:32:39.469Z,16.20
2018-09-12T10:33:39.462Z,8.60
2018-09-12T10:34:39.459Z,6.60
2018-09-12T10:35:39.474Z,6.80
2018-09-12T10:36:39.456Z,5.60
2018-09-12T10:37:39.464Z,7.00
2018-09-12T10:38:39.445Z,8.80
2018-09-12T10:39:39.443Z,14.60
2018-09-12T10:40:39.440Z,18.10
2018-09-12T10:41:39.439Z,16.00
2018-09-12T10:43:00.453Z,8.70
2018-09-12T10:43:39.433Z,11.90
2018-09-12T10:44:39.424Z,9.60
2018-09-12T10:45:39.421Z,9.10
2018-09-12T10:46:39.417Z,9.10
2018-09-12T10:47:39.922Z,10.40
2018-09-12T10:48:39.414Z,8.20
2018-09-12T10:49:39.425Z,8.00
2018-09-12T10:50:39.401Z,10.30
2018-09-12T10:51:39.404Z,10.20
2018-09-12T10:52:39.396Z,11.20
2018-09-12T10:53:39.392Z,9.60
2018-09-12T10:54:39.403Z,12.90
2018-09-12T10:55:39.384Z,13.90
2018-09-12T10:56:39.379Z,9.10
2018-09-12T10:57:39.374Z,8.00
2018-09-12T10:58:39.366Z,7.80
2018-09-12T10:59:39.367Z,8.10
2018-09-12T11:00:39.380Z,8.40
2018-09-12T11:01:39.356Z,9.90
2018-09-12T11:02:39.353Z,8.60
2018-09-12T11:03:39.363Z,8.00
2018-09-12T11:04:39.344Z,8.50
2018-09-12T11:05:39.355Z,8.70
2018-09-12T11:06:39.336Z,8.70
2018-09-12T11:07:39.331Z,9.50
2018-09-12T11:08:39.328Z,7.70
2018-09-12T11:09:39.354Z,14.00
2018-09-12T11:10:39.331Z,9.60
2018-09-12T11:11:39.315Z,17.70
2018-09-12T11:12:39.321Z,8.40
2018-09-12T11:13:39.307Z,6.70
2018-09-12T11:14:39.299Z,6.90
2018-09-12T11:15:39.310Z,6.40
2018-09-12T11:16:39.305Z,6.50
2018-09-12T11:17:39.292Z,6.10
2018-09-12T11:18:39.287Z,6.50
2018-09-12T11:19:39.280Z,7.80
2018-09-12T11:20:39.273Z,7.10
2018-09-12T11:21:39.291Z,8.30
2018-09-12T11:22:39.283Z,7.90
2018-09-12T11:23:39.271Z,8.10
2018-09-12T11:24:39.269Z,7.20
2018-09-12T11:25:39.264Z,8.20
2018-09-12T11:26:39.261Z,6.00
2018-09-12T11:27:39.280Z,6.40
2018-09-12T11:28:39.255Z,7.80
2018-09-12T11:29:39.250Z,7.00
2018-09-12T11:30:39.245Z,7.50
2018-09-12T11:31:39.245Z,7.40
2018-09-12T11:32:39.240Z,6.40
2018-09-12T11:33:39.249Z,6.30
2018-09-12T11:34:39.225Z,7.40
2018-09-12T11:35:39.230Z,6.90
2018-09-12T11:36:39.236Z,6.20
2018-09-12T11:37:39.230Z,7.80
2018-09-12T11:38:39.227Z,6.00
2018-09-12T11:39:39.216Z,5.80
2018-09-12T11:40:39.196Z,7.40
2018-09-12T11:41:39.195Z,6.10
2018-09-12T11:42:39.203Z,5.80
2018-09-12T11:43:39.185Z,6.90
2018-09-12T11:44:39.179Z,6.50
2018-09-12T11:45:39.173Z,5.80
2018-09-12T11:46:39.168Z,5.90
2018-09-12T11:47:39.180Z,6.40
2018-09-12T11:48:39.171Z,6.20
2018-09-12T11:49:39.163Z,5.90
2018-09-12T11:50:39.150Z,6.60
2018-09-12T11:51:39.148Z,6.80
2018-09-12T11:52:39.142Z,6.60
2018-09-12T11:53:39.153Z,6.30
2018-09-12T11:54:39.136Z,6.50
2018-09-12T11:55:39.142Z,6.20
2018-09-12T11:56:39.130Z,5.90
2018-09-12T11:57:39.123Z,7.30
2018-09-12T11:58:39.144Z,7.00
2018-09-12T11:59:39.117Z,6.60
2018-09-12T12:00:39.114Z,6.80
2018-09-12T12:01:39.108Z,6.80
2018-09-12T12:02:39.101Z,6.70
2018-09-12T12:03:39.098Z,6.80
2018-09-12T12:04:39.109Z,6.70
2018-09-12T12:05:39.089Z,6.20
2018-09-12T12:06:39.087Z,6.60
2018-09-12T12:07:39.081Z,7.10
2018-09-12T12:08:39.075Z,7.10
2018-09-12T12:09:39.071Z,6.60
2018-09-12T12:10:39.075Z,6.50
2018-09-12T12:11:39.073Z,7.00
2018-09-12T12:12:39.059Z,6.30
2018-09-12T12:13:39.052Z,5.80
2018-09-12T12:14:39.089Z,5.60
2018-09-12T12:15:39.069Z,6.10
2018-09-12T12:16:39.085Z,5.60
2018-09-12T12:17:39.055Z,5.40
2018-09-12T12:18:39.049Z,5.70
2018-09-12T12:19:39.034Z,5.80
2018-09-12T12:20:39.064Z,5.40
2018-09-12T12:21:39.048Z,6.90
2018-09-12T12:22:39.069Z,7.00
2018-09-12T12:23:39.038Z,6.20
2018-09-12T12:24:39.006Z,5.50
2018-09-12T12:25:39.011Z,5.60
2018-09-12T12:26:39.022Z,5.60
2018-09-12T12:27:39.016Z,5.20
2018-09-12T12:28:39.006Z,6.30
2018-09-12T12:29:38.997Z,6.20
2018-09-12T12:30:39.020Z,6.60
2018-09-12T12:31:38.992Z,6.20
2018-09-12T12:32:39.015Z,6.00
2018-09-12T12:33:38.983Z,6.90
2018-09-12T12:34:38.981Z,6.10
2018-09-12T12:35:39.000Z,6.20
2018-09-12T12:36:38.980Z,6.10
2018-09-12T12:37:38.960Z,6.10
2018-09-12T12:38:38.978Z,5.90
2018-09-12T12:39:38.983Z,6.30
2018-09-12T12:40:38.931Z,6.40
2018-09-12T12:41:38.924Z,5.90
2018-09-12T12:42:38.961Z,5.70
2018-09-12T12:43:38.907Z,5.60
2018-09-12T12:44:38.914Z,5.70
2018-09-12T12:45:38.908Z,5.60
2018-09-12T12:46:38.881Z,5.50
2018-09-12T12:47:38.877Z,5.30
2018-09-12T12:48:38.887Z,5.40
2018-09-12T12:49:38.860Z,6.30
2018-09-12T12:50:38.851Z,5.50
2018-09-12T12:51:38.841Z,6.10
2018-09-12T12:52:38.855Z,6.10
2018-09-12T12:53:38.839Z,6.60
2018-09-12T12:54:38.815Z,6.70
2018-09-12T12:55:38.808Z,6.50
2018-09-12T12:56:38.805Z,6.60
2018-09-12T12:57:38.791Z,7.20
2018-09-12T12:58:38.798Z,7.80
2018-09-12T12:59:38.774Z,7.80
2018-09-12T13:00:38.765Z,7.40
2018-09-12T13:01:38.757Z,7.40
2018-09-12T13:02:38.745Z,7.10
2018-09-12T13:03:38.757Z,7.40
2018-09-12T13:04:38.734Z,7.70
2018-09-12T13:05:38.735Z,7.20
2018-09-12T13:06:38.710Z,8.10
2018-09-12T13:07:38.702Z,8.40
2018-09-12T13:08:38.704Z,8.80
2018-09-12T13:09:38.687Z,7.50
2018-09-12T13:10:38.675Z,7.80
2018-09-12T13:11:38.679Z,8.50
2018-09-12T13:12:38.656Z,8.40